Apulia Station, New York
Current Conditions -  °F | °C
As of 11:15 AM on Sunday 25 Jan 2015 (Local Time) from KN03 Reporting Station
Light Snow Light Snow  
Wind Chill: 13°   Ceiling: 2500
Heat Index: 21°   Visibility: 7mi
Dew Point: 14°   Wind: 7mph
Humidity: 74%   Direction: 300°WNW
Pressure: 29.81"   Gusts: NA
Location:  42.82°N, 76.07°W
Report Text: KN03 251615Z AUTO 30006KT 7SM -SN OVC025 M06/M10 A2981 RMK AO2
Loading
Personal Weather Stations






























Interactive Weather Map New forecast layout! Learn more

10-Day Weather Forecast

Advertisements
Track Severe Weather on mobile